createdAt,value
2023-04-09T00:00:45.498Z,8.20
2023-04-09T00:03:12.660Z,8.60
2023-04-09T00:05:40.659Z,8.45
2023-04-09T00:08:07.825Z,7.85
2023-04-09T00:10:34.829Z,9.15
2023-04-09T00:13:01.902Z,7.90
2023-04-09T00:15:31.580Z,8.40
2023-04-09T00:17:59.745Z,8.20
2023-04-09T00:20:26.858Z,8.50
2023-04-09T00:22:54.225Z,8.05
2023-04-09T00:25:21.272Z,8.27
2023-04-09T00:27:48.226Z,8.93
2023-04-09T00:30:15.956Z,8.75
2023-04-09T00:32:43.075Z,8.48
2023-04-09T00:35:12.633Z,8.05
2023-04-09T00:37:39.648Z,8.30
2023-04-09T00:40:07.170Z,8.50
2023-04-09T00:42:34.863Z,8.05
2023-04-09T00:45:02.126Z,7.85
2023-04-09T00:47:29.826Z,7.53
2023-04-09T00:49:57.004Z,7.03
2023-04-09T00:52:24.717Z,8.18
2023-04-09T00:54:51.846Z,7.47
2023-04-09T00:57:19.359Z,8.38
2023-04-09T00:59:46.418Z,7.30
2023-04-09T01:02:13.529Z,7.60
2023-04-09T01:04:41.247Z,7.75
2023-04-09T01:07:20.948Z,8.98
2023-04-09T01:09:54.835Z,7.70
2023-04-09T01:12:34.222Z,7.53
2023-04-09T01:15:30.154Z,8.43
2023-04-09T01:18:12.476Z,8.93
2023-04-09T01:20:41.557Z,7.13
2023-04-09T01:23:19.249Z,8.18
2023-04-09T01:28:45.721Z,7.22
2023-04-09T01:31:15.393Z,8.23
2023-04-09T01:33:42.637Z,8.38
2023-04-09T01:36:09.773Z,8.32
2023-04-09T01:38:37.700Z,9.30
2023-04-09T01:41:05.395Z,9.00
2023-04-09T01:43:32.386Z,8.73
2023-04-09T01:45:59.812Z,9.18
2023-04-09T01:48:27.173Z,8.60
2023-04-09T01:50:54.151Z,7.80
2023-04-09T01:53:21.928Z,8.02
2023-04-09T01:55:48.873Z,7.75
2023-04-09T01:58:16.019Z,7.53
2023-04-09T02:00:46.973Z,8.27
2023-04-09T02:03:21.752Z,8.40
2023-04-09T02:06:06.864Z,8.00
2023-04-09T02:08:33.837Z,7.68
2023-04-09T02:11:00.924Z,7.68
2023-04-09T02:13:27.904Z,7.30
2023-04-09T02:15:56.163Z,8.73
2023-04-09T02:18:30.241Z,7.72
2023-04-09T02:20:57.572Z,7.85
2023-04-09T02:23:24.778Z,8.25
2023-04-09T02:25:52.265Z,7.85
2023-04-09T02:28:19.315Z,9.05
2023-04-09T02:30:46.331Z,8.98
2023-04-09T02:33:13.435Z,8.43
2023-04-09T02:35:40.774Z,9.45
2023-04-09T02:38:13.920Z,7.65
2023-04-09T02:40:41.447Z,9.25
2023-04-09T02:43:09.230Z,7.60
2023-04-09T02:45:36.350Z,8.18
2023-04-09T02:48:03.858Z,7.55
2023-04-09T02:50:34.645Z,7.78
2023-04-09T02:53:01.929Z,7.82
2023-04-09T02:55:28.979Z,7.95
2023-04-09T02:57:56.068Z,7.30
2023-04-09T03:00:23.130Z,7.53
2023-04-09T03:02:50.403Z,7.03
2023-04-09T03:05:17.650Z,7.35
2023-04-09T03:07:44.996Z,8.18
2023-04-09T03:10:12.125Z,7.28
2023-04-09T03:12:39.214Z,7.93
2023-04-09T03:15:07.036Z,7.22
2023-04-09T03:17:34.118Z,7.47
2023-04-09T03:20:01.164Z,7.38
2023-04-09T03:22:38.947Z,7.05
2023-04-09T03:25:19.521Z,6.85
2023-04-09T03:27:47.384Z,7.38
2023-04-09T03:30:22.036Z,7.43
2023-04-09T03:32:49.089Z,7.28
2023-04-09T03:35:16.370Z,6.88
2023-04-09T03:37:44.886Z,7.82
2023-04-09T03:40:17.178Z,7.22
2023-04-09T03:42:44.409Z,6.78
2023-04-09T03:45:14.238Z,6.70
2023-04-09T03:47:44.552Z,7.40
2023-04-09T03:50:12.435Z,7.00
2023-04-09T03:52:55.074Z,6.88
2023-04-09T03:55:22.491Z,6.35
2023-04-09T03:57:50.765Z,7.05
2023-04-09T04:00:20.820Z,7.32
2023-04-09T04:02:51.561Z,7.15
2023-04-09T04:05:29.186Z,6.95
2023-04-09T04:07:59.131Z,6.32
2023-04-09T04:10:29.276Z,8.07
2023-04-09T04:12:56.305Z,8.15
2023-04-09T04:15:33.887Z,9.32
2023-04-09T04:18:01.030Z,7.93
2023-04-09T04:20:42.171Z,7.93
2023-04-09T04:23:12.990Z,7.20
2023-04-09T04:25:58.537Z,6.72
2023-04-09T04:28:30.834Z,6.65
2023-04-09T04:30:59.275Z,7.40
2023-04-09T04:33:27.847Z,7.47
2023-04-09T04:36:13.620Z,7.13
2023-04-09T04:38:45.010Z,7.03
2023-04-09T04:41:20.915Z,6.88
2023-04-09T04:43:54.542Z,7.38
2023-04-09T04:46:24.714Z,6.63
2023-04-09T04:48:51.954Z,7.63
2023-04-09T04:51:19.528Z,7.72
2023-04-09T04:53:58.669Z,7.88
2023-04-09T04:56:25.808Z,7.80
2023-04-09T04:59:02.471Z,8.15
2023-04-09T05:01:36.266Z,7.72
2023-04-09T05:04:07.720Z,7.78
2023-04-09T05:06:36.972Z,6.45
2023-04-09T05:09:08.421Z,6.60
2023-04-09T05:11:42.137Z,8.10
2023-04-09T05:14:14.734Z,8.45
2023-04-09T05:16:42.245Z,8.73
2023-04-09T05:19:09.258Z,9.15
2023-04-09T05:21:37.712Z,8.50
2023-04-09T05:24:06.372Z,8.93
2023-04-09T05:26:34.348Z,7.95
2023-04-09T05:29:02.687Z,7.60
2023-04-09T05:31:29.786Z,8.38
2023-04-09T05:34:06.818Z,8.13
2023-04-09T05:36:47.602Z,7.10
2023-04-09T05:39:15.521Z,7.80
2023-04-09T05:41:44.636Z,7.93
2023-04-09T05:44:26.713Z,8.02
2023-04-09T05:47:00.888Z,7.82
2023-04-09T05:49:33.925Z,8.07
2023-04-09T05:52:03.521Z,7.75
2023-04-09T05:54:32.682Z,8.50
2023-04-09T05:56:59.652Z,9.50
2023-04-09T05:59:27.136Z,9.15
2023-04-09T06:01:54.264Z,8.40
2023-04-09T06:04:22.182Z,7.65
2023-04-09T06:06:49.596Z,7.97
2023-04-09T06:09:16.540Z,8.57
2023-04-09T06:11:43.524Z,8.63
2023-04-09T06:14:16.386Z,8.63
2023-04-09T06:16:43.536Z,8.90
2023-04-09T06:19:12.536Z,8.05
2023-04-09T06:21:40.828Z,8.57
2023-04-09T06:24:07.869Z,8.15
2023-04-09T06:26:34.833Z,8.77
2023-04-09T06:29:02.203Z,8.60
2023-04-09T06:31:29.727Z,8.90
2023-04-09T06:33:56.918Z,9.00
2023-04-09T06:36:23.948Z,8.70
2023-04-09T06:38:51.059Z,7.60
2023-04-09T06:41:21.301Z,10.18
2023-04-09T06:43:48.390Z,9.60
2023-04-09T06:46:17.942Z,10.85
2023-04-09T06:48:44.922Z,9.10
2023-04-09T06:51:12.337Z,9.77
2023-04-09T06:53:39.490Z,9.70
2023-04-09T06:56:06.900Z,9.77
2023-04-09T06:58:34.077Z,10.38
2023-04-09T07:01:01.186Z,10.20
2023-04-09T07:03:28.950Z,10.20
2023-04-09T07:05:56.609Z,11.00
2023-04-09T07:08:23.983Z,10.68
2023-04-09T07:10:51.210Z,10.05
2023-04-09T07:13:18.743Z,11.30
2023-04-09T07:15:45.792Z,10.63
2023-04-09T07:18:12.880Z,10.40
2023-04-09T07:20:39.821Z,10.75
2023-04-09T07:23:06.933Z,10.90
2023-04-09T07:25:34.094Z,10.80
2023-04-09T07:28:01.157Z,11.73
2023-04-09T07:30:28.165Z,11.93
2023-04-09T07:32:55.337Z,12.10
2023-04-09T07:35:22.448Z,11.27
2023-04-09T07:37:49.452Z,11.57
2023-04-09T07:40:16.638Z,11.02
2023-04-09T07:42:43.783Z,12.90
2023-04-09T07:45:11.160Z,11.63
2023-04-09T07:47:42.110Z,11.07
2023-04-09T07:50:09.661Z,11.75
2023-04-09T07:52:36.614Z,12.63
2023-04-09T07:55:03.727Z,11.65
2023-04-09T07:57:33.760Z,10.70
2023-04-09T08:00:01.846Z,10.85
2023-04-09T08:02:40.219Z,12.45
2023-04-09T08:05:08.037Z,12.02
2023-04-09T08:07:35.205Z,10.38
2023-04-09T08:10:02.175Z,11.38
2023-04-09T08:12:29.248Z,12.48
2023-04-09T08:14:56.437Z,11.80
2023-04-09T08:17:23.422Z,12.10
2023-04-09T08:19:50.801Z,11.45
2023-04-09T08:22:17.785Z,12.13
2023-04-09T08:24:44.777Z,12.60
2023-04-09T08:27:12.193Z,11.73
2023-04-09T08:29:40.632Z,11.13
2023-04-09T08:32:08.191Z,11.80
2023-04-09T08:34:35.279Z,11.15
2023-04-09T08:37:02.788Z,11.57
2023-04-09T08:39:29.804Z,11.48
2023-04-09T08:42:00.045Z,10.27
2023-04-09T08:44:27.349Z,12.20
2023-04-09T08:46:54.557Z,9.85
2023-04-09T08:49:21.761Z,10.68
2023-04-09T08:51:49.201Z,10.93
2023-04-09T08:54:17.291Z,9.95
2023-04-09T08:56:44.350Z,12.23
2023-04-09T08:59:11.441Z,13.13
2023-04-09T09:01:38.542Z,12.35
2023-04-09T09:04:07.012Z,11.77
2023-04-09T09:06:38.371Z,10.60
2023-04-09T09:09:12.710Z,12.75
2023-04-09T09:11:41.354Z,12.10
2023-04-09T09:14:09.801Z,9.50
2023-04-09T09:16:42.737Z,9.68
2023-04-09T09:19:24.850Z,12.27
2023-04-09T09:21:59.699Z,11.95
2023-04-09T09:24:26.749Z,11.68
2023-04-09T09:26:59.984Z,12.90
2023-04-09T09:29:28.206Z,12.38
2023-04-09T09:31:55.926Z,11.80
2023-04-09T09:34:23.840Z,13.00
2023-04-09T09:36:50.974Z,12.57
2023-04-09T09:39:18.222Z,12.75
2023-04-09T09:41:45.976Z,13.30
2023-04-09T09:44:13.853Z,12.90
2023-04-09T09:46:42.447Z,11.80
2023-04-09T09:49:09.649Z,12.95
2023-04-09T09:51:37.564Z,11.32
2023-04-09T09:54:04.539Z,13.40
2023-04-09T09:56:37.147Z,12.48
2023-04-09T09:59:07.631Z,12.25
2023-04-09T10:01:36.198Z,10.93
2023-04-09T10:04:04.643Z,12.15
2023-04-09T10:06:34.241Z,13.85
2023-04-09T10:09:04.594Z,14.43
2023-04-09T10:11:33.713Z,13.25
2023-04-09T10:14:00.822Z,13.23
2023-04-09T10:16:28.428Z,13.90
2023-04-09T10:18:56.413Z,13.57
2023-04-09T10:21:47.761Z,11.82
2023-04-09T10:24:16.065Z,12.88
2023-04-09T10:26:44.773Z,13.43
2023-04-09T10:29:16.630Z,14.48
2023-04-09T10:31:47.582Z,13.35
2023-04-09T10:34:21.865Z,13.48
2023-04-09T10:36:55.448Z,11.52
2023-04-09T10:39:27.056Z,12.73
2023-04-09T10:41:54.471Z,13.02
2023-04-09T10:44:27.120Z,12.60
2023-04-09T10:46:57.156Z,12.30
2023-04-09T10:49:25.592Z,11.05
2023-04-09T10:51:53.488Z,10.55
2023-04-09T10:54:35.838Z,10.32
2023-04-09T10:57:11.552Z,9.70
2023-04-09T10:59:45.503Z,10.63
2023-04-09T11:02:41.123Z,10.50
2023-04-09T11:05:22.301Z,10.43
2023-04-09T11:08:03.391Z,11.57
2023-04-09T11:10:31.044Z,10.68
2023-04-09T11:12:58.076Z,11.15
2023-04-09T11:15:25.120Z,10.93
2023-04-09T11:17:52.191Z,10.38
2023-04-09T11:20:23.355Z,11.27
2023-04-09T11:22:51.517Z,12.05
2023-04-09T11:25:22.726Z,10.77
2023-04-09T11:27:50.164Z,11.18
2023-04-09T11:30:17.206Z,12.15
2023-04-09T11:32:44.269Z,10.82
2023-04-09T11:35:18.315Z,10.05
2023-04-09T11:37:45.805Z,9.43
2023-04-09T11:40:16.965Z,10.15
2023-04-09T11:42:44.986Z,12.35
2023-04-09T11:45:12.328Z,10.32
2023-04-09T11:47:40.578Z,10.25
2023-04-09T11:50:08.411Z,11.68
2023-04-09T11:52:36.063Z,9.65
2023-04-09T11:55:04.610Z,10.88
2023-04-09T11:57:41.381Z,10.45
2023-04-09T12:00:09.505Z,10.32
2023-04-09T12:02:44.475Z,9.75
2023-04-09T12:05:13.521Z,9.57
2023-04-09T12:07:42.325Z,10.55
2023-04-09T12:10:14.013Z,9.45
2023-04-09T12:12:47.728Z,11.10
2023-04-09T12:15:21.673Z,11.27
2023-04-09T12:17:52.191Z,9.70
2023-04-09T12:20:42.524Z,10.48
2023-04-09T12:23:09.993Z,10.80
2023-04-09T12:25:43.986Z,9.77
2023-04-09T12:28:13.691Z,10.10
2023-04-09T12:30:40.811Z,11.13
2023-04-09T12:33:10.301Z,10.30
2023-04-09T12:35:38.515Z,10.43
2023-04-09T12:38:05.779Z,10.40
2023-04-09T12:40:32.773Z,10.82
2023-04-09T12:42:59.762Z,9.75
2023-04-09T12:45:28.068Z,10.98
2023-04-09T12:47:55.176Z,11.27
2023-04-09T12:50:22.245Z,10.65
2023-04-09T12:52:49.288Z,11.48
2023-04-09T12:55:16.435Z,9.77
2023-04-09T12:57:45.052Z,10.10
2023-04-09T13:00:12.665Z,11.10
2023-04-09T13:02:39.882Z,9.32
2023-04-09T13:05:07.566Z,9.90
2023-04-09T13:07:34.667Z,10.30
2023-04-09T13:10:01.703Z,10.80
2023-04-09T13:12:28.816Z,10.43
2023-04-09T13:14:56.702Z,11.35
2023-04-09T13:17:23.892Z,9.93
2023-04-09T13:19:51.830Z,9.88
2023-04-09T13:22:19.094Z,10.20
2023-04-09T13:24:46.131Z,9.75
2023-04-09T13:27:13.095Z,10.02
2023-04-09T13:29:40.192Z,11.15
2023-04-09T13:32:07.633Z,11.20
2023-04-09T13:34:35.200Z,10.05
2023-04-09T13:37:03.073Z,10.25
2023-04-09T13:39:30.017Z,9.50
2023-04-09T13:41:57.037Z,7.82
2023-04-09T13:44:25.070Z,7.40
2023-04-09T13:46:52.458Z,7.22
2023-04-09T13:49:19.404Z,8.02
2023-04-09T13:51:46.501Z,8.73
2023-04-09T13:54:13.593Z,8.85
2023-04-09T13:56:40.616Z,8.77
2023-04-09T13:59:07.621Z,8.32
2023-04-09T14:01:34.773Z,8.18
2023-04-09T14:04:02.254Z,8.32
2023-04-09T14:06:29.378Z,8.13
2023-04-09T14:08:57.145Z,7.75
2023-04-09T14:11:24.388Z,8.07
2023-04-09T14:13:51.744Z,8.02
2023-04-09T14:16:19.448Z,8.95
2023-04-09T14:18:46.537Z,8.02
2023-04-09T14:21:13.533Z,8.20
2023-04-09T14:23:40.779Z,6.90
2023-04-09T14:26:07.783Z,7.90
2023-04-09T14:28:34.767Z,8.63
2023-04-09T14:31:01.896Z,8.57
2023-04-09T14:33:28.897Z,7.85
2023-04-09T14:35:56.348Z,8.13
2023-04-09T14:38:26.538Z,8.18
2023-04-09T14:40:53.574Z,7.97
2023-04-09T14:43:20.523Z,8.25
2023-04-09T14:45:47.787Z,8.63
2023-04-09T14:48:15.075Z,9.05
2023-04-09T14:50:43.194Z,7.70
2023-04-09T14:53:10.297Z,7.88
2023-04-09T14:55:37.333Z,8.07
2023-04-09T14:58:07.140Z,7.97
2023-04-09T15:00:34.261Z,6.88
2023-04-09T15:03:01.427Z,7.70
2023-04-09T15:05:28.709Z,7.40
2023-04-09T15:07:56.117Z,8.25
2023-04-09T15:10:23.180Z,7.53
2023-04-09T15:12:50.269Z,7.90
2023-04-09T15:15:17.472Z,7.00
2023-04-09T15:17:44.557Z,7.38
2023-04-09T15:20:11.865Z,7.30
2023-04-09T15:22:38.808Z,7.53
2023-04-09T15:25:06.259Z,8.05
2023-04-09T15:27:33.269Z,8.23
2023-04-09T15:30:00.457Z,7.90
2023-04-09T15:32:29.073Z,6.70
2023-04-09T15:34:56.290Z,7.60
2023-04-09T15:37:23.320Z,7.38
2023-04-09T15:39:50.658Z,7.00
2023-04-09T15:42:22.519Z,8.98
2023-04-09T15:44:50.535Z,7.38
2023-04-09T15:47:17.819Z,6.38
2023-04-09T15:49:45.018Z,5.07
2023-04-09T15:52:12.020Z,7.03
2023-04-09T15:54:38.976Z,6.68
2023-04-09T15:57:05.996Z,7.07
2023-04-09T15:59:32.965Z,7.40
2023-04-09T16:02:00.009Z,7.40
2023-04-09T16:04:27.745Z,6.78
2023-04-09T16:06:56.414Z,7.63
2023-04-09T16:09:23.879Z,7.65
2023-04-09T16:11:51.214Z,7.15
2023-04-09T16:14:18.245Z,7.30
2023-04-09T16:16:50.070Z,7.63
2023-04-09T16:21:45.609Z,7.18
2023-04-09T16:24:12.863Z,7.68
2023-04-09T16:26:41.108Z,8.35
2023-04-09T16:29:08.233Z,6.97
2023-04-09T16:31:36.040Z,7.13
2023-04-09T16:34:03.173Z,7.80
2023-04-09T16:36:37.233Z,7.85
2023-04-09T16:39:04.790Z,7.45
2023-04-09T16:41:31.981Z,6.80
2023-04-09T16:43:58.979Z,7.50
2023-04-09T16:46:26.083Z,8.10
2023-04-09T16:48:53.523Z,7.50
2023-04-09T16:51:21.137Z,7.22
2023-04-09T16:53:48.152Z,7.55
2023-04-09T16:56:16.105Z,6.85
2023-04-09T16:58:43.107Z,8.13
2023-04-09T17:01:10.138Z,7.25
2023-04-09T17:03:37.504Z,6.63
2023-04-09T17:06:05.016Z,6.93
2023-04-09T17:08:32.224Z,7.60
2023-04-09T17:11:02.567Z,7.72
2023-04-09T17:13:31.625Z,6.97
2023-04-09T17:15:58.767Z,7.82
2023-04-09T17:18:25.821Z,7.65
2023-04-09T17:20:53.473Z,7.35
2023-04-09T17:23:21.736Z,6.82
2023-04-09T17:25:49.303Z,7.03
2023-04-09T17:28:18.683Z,7.68
2023-04-09T17:30:46.013Z,7.53
2023-04-09T17:33:13.430Z,8.05
2023-04-09T17:35:42.195Z,8.38
2023-04-09T17:38:09.233Z,7.28
2023-04-09T17:40:36.481Z,7.43
2023-04-09T17:43:03.530Z,7.93
2023-04-09T17:45:30.529Z,8.20
2023-04-09T17:47:57.628Z,8.43
2023-04-09T17:50:24.969Z,7.93
2023-04-09T17:52:52.453Z,7.80
2023-04-09T17:55:19.501Z,7.07
2023-04-09T17:57:46.500Z,7.75
2023-04-09T18:00:14.046Z,7.68
2023-04-09T18:02:47.089Z,7.30
2023-04-09T18:05:14.434Z,7.07
2023-04-09T18:07:41.684Z,7.50
2023-04-09T18:10:08.873Z,7.45
2023-04-09T18:12:35.976Z,7.75
2023-04-09T18:15:04.363Z,7.18
2023-04-09T18:17:32.470Z,7.15
2023-04-09T18:19:59.547Z,7.25
2023-04-09T18:22:27.630Z,7.22
2023-04-09T18:24:54.972Z,7.45
2023-04-09T18:27:21.886Z,7.50
2023-04-09T18:29:49.465Z,7.68
2023-04-09T18:32:17.104Z,7.75
2023-04-09T18:34:45.808Z,7.18
2023-04-09T18:37:12.884Z,7.20
2023-04-09T18:39:39.963Z,7.20
2023-04-09T18:42:07.076Z,6.45
2023-04-09T18:44:36.350Z,6.22
2023-04-09T18:47:05.832Z,6.97
2023-04-09T18:49:33.336Z,6.35
2023-04-09T18:52:00.532Z,6.03
2023-04-09T18:54:27.827Z,6.03
2023-04-09T18:56:54.855Z,7.55
2023-04-09T18:59:21.986Z,7.93
2023-04-09T19:01:49.097Z,8.00
2023-04-09T19:04:16.467Z,7.90
2023-04-09T19:06:46.552Z,8.13
2023-04-09T19:09:13.711Z,8.52
2023-04-09T19:11:41.221Z,6.75
2023-04-09T19:14:08.437Z,7.88
2023-04-09T19:16:36.124Z,8.10
2023-04-09T19:19:03.531Z,8.95
2023-04-09T19:21:30.712Z,7.63
2023-04-09T19:24:00.036Z,8.20
2023-04-09T19:26:27.145Z,8.50
2023-04-09T19:28:54.885Z,8.57
2023-04-09T19:31:22.761Z,7.65
2023-04-09T19:33:49.801Z,7.68
2023-04-09T19:36:16.848Z,7.80
2023-04-09T19:38:43.842Z,7.15
2023-04-09T19:41:11.055Z,7.65
2023-04-09T19:43:39.337Z,7.60
2023-04-09T19:46:08.557Z,7.72
2023-04-09T19:48:37.834Z,6.57
2023-04-09T19:51:05.070Z,8.38
2023-04-09T19:53:33.061Z,7.15
2023-04-09T19:56:00.105Z,9.23
2023-04-09T19:58:27.393Z,8.30
2023-04-09T20:00:55.022Z,8.15
2023-04-09T20:03:22.475Z,9.50
2023-04-09T20:05:49.731Z,7.82
2023-04-09T20:08:16.742Z,8.48
2023-04-09T20:10:46.525Z,7.50
2023-04-09T20:13:13.885Z,7.70
2023-04-09T20:15:41.682Z,7.50
2023-04-09T20:18:08.811Z,7.82
2023-04-09T20:20:36.198Z,7.90
2023-04-09T20:23:03.424Z,7.45
2023-04-09T20:25:34.769Z,7.82
2023-04-09T20:28:04.878Z,8.10
2023-04-09T20:30:32.368Z,7.75
2023-04-09T20:32:59.369Z,8.45
2023-04-09T20:35:26.353Z,7.20
2023-04-09T20:37:54.806Z,6.07
2023-04-09T20:40:22.339Z,6.32
2023-04-09T20:42:49.396Z,6.30
2023-04-09T20:45:16.434Z,7.30
2023-04-09T20:47:43.448Z,7.43
2023-04-09T20:50:10.890Z,9.43
2023-04-09T20:52:38.425Z,7.88
2023-04-09T20:55:06.419Z,8.75
2023-04-09T20:57:33.809Z,8.68
2023-04-09T21:00:01.073Z,10.18
2023-04-09T21:02:28.206Z,8.32
2023-04-09T21:04:56.414Z,9.65
2023-04-09T21:07:23.443Z,8.75
2023-04-09T21:09:50.424Z,7.70
2023-04-09T21:12:17.439Z,8.35
2023-04-09T21:14:44.483Z,7.70
2023-04-09T21:17:11.569Z,8.82
2023-04-09T21:19:38.664Z,7.63
2023-04-09T21:22:05.617Z,7.60
2023-04-09T21:24:34.069Z,9.27
2023-04-09T21:27:01.738Z,8.80
2023-04-09T21:29:28.710Z,8.10
2023-04-09T21:31:55.911Z,7.97
2023-04-09T21:34:22.930Z,7.97
2023-04-09T21:36:50.018Z,8.30
2023-04-09T21:39:17.248Z,8.32
2023-04-09T21:41:44.226Z,8.25
2023-04-09T21:44:11.296Z,8.60
2023-04-09T21:46:40.690Z,8.25
2023-04-09T21:49:08.192Z,8.05
2023-04-09T21:51:35.481Z,7.53
2023-04-09T21:54:06.839Z,6.78
2023-04-09T21:56:34.372Z,8.10
2023-04-09T21:59:01.495Z,8.38
2023-04-09T22:01:30.540Z,7.88
2023-04-09T22:04:01.889Z,8.95
2023-04-09T22:06:29.293Z,7.72
2023-04-09T22:08:57.357Z,7.55
2023-04-09T22:11:28.504Z,11.38
2023-04-09T22:13:56.811Z,13.77
2023-04-09T22:16:24.226Z,8.55
2023-04-09T22:18:51.789Z,11.20
2023-04-09T22:21:18.986Z,8.50
2023-04-09T22:23:45.929Z,8.68
2023-04-09T22:26:13.161Z,9.60
2023-04-09T22:28:40.176Z,8.77
2023-04-09T22:31:07.409Z,8.82
2023-04-09T22:33:34.545Z,8.00
2023-04-09T22:36:01.863Z,7.65
2023-04-09T22:38:28.973Z,7.00
2023-04-09T22:40:56.133Z,7.07
2023-04-09T22:43:23.306Z,8.02
2023-04-09T22:45:54.509Z,7.28
2023-04-09T22:48:22.090Z,7.10
2023-04-09T22:50:49.642Z,6.45
2023-04-09T22:53:19.313Z,6.95
2023-04-09T22:55:47.650Z,6.72
2023-04-09T22:58:14.931Z,7.38
2023-04-09T23:00:42.340Z,7.63
2023-04-09T23:03:09.685Z,7.00
2023-04-09T23:05:36.829Z,7.55
2023-04-09T23:08:04.002Z,8.00
2023-04-09T23:10:31.443Z,7.72
2023-04-09T23:12:58.392Z,7.40
2023-04-09T23:15:25.570Z,7.18
2023-04-09T23:17:52.621Z,6.10
2023-04-09T23:20:19.878Z,7.32
2023-04-09T23:22:47.541Z,8.35
2023-04-09T23:25:17.362Z,8.20
2023-04-09T23:27:44.368Z,7.72
2023-04-09T23:30:16.717Z,7.45
2023-04-09T23:32:46.991Z,8.05
2023-04-09T23:35:14.262Z,7.25
2023-04-09T23:37:41.551Z,8.13
2023-04-09T23:40:08.942Z,7.38
2023-04-09T23:42:35.967Z,6.50
2023-04-09T23:45:04.433Z,6.80
2023-04-09T23:47:33.466Z,7.50
2023-04-09T23:50:05.014Z,7.25
2023-04-09T23:55:00.198Z,5.57
2023-04-09T23:57:27.544Z,6.88
2023-04-09T23:59:54.688Z,7.10
